createdAt,value
2018-12-14T00:02:01.028Z,9.77
2018-12-14T00:04:05.190Z,10.03
2018-12-14T00:06:09.194Z,10.47
2018-12-14T00:08:13.272Z,10.47
2018-12-14T00:10:17.298Z,10.23
2018-12-14T00:12:21.448Z,11.23
2018-12-14T00:14:25.576Z,12.23
2018-12-14T00:16:29.563Z,10.37
2018-12-14T00:18:33.573Z,10.90
2018-12-14T00:20:37.617Z,11.17
2018-12-14T00:22:41.735Z,11.83
2018-12-14T00:24:45.793Z,10.30
2018-12-14T00:26:49.803Z,11.47
2018-12-14T00:28:53.810Z,9.70
2018-12-14T00:30:57.838Z,11.43
2018-12-14T00:33:01.849Z,11.30
2018-12-14T00:35:06.619Z,9.03
2018-12-14T00:37:10.726Z,11.53
2018-12-14T00:39:14.723Z,10.60
2018-12-14T00:41:18.915Z,11.27
2018-12-14T00:43:22.975Z,10.30
2018-12-14T00:45:27.009Z,13.07
2018-12-14T00:47:31.033Z,13.10
2018-12-14T00:49:35.112Z,13.93
2018-12-14T00:51:39.234Z,13.37
2018-12-14T00:53:43.277Z,14.30
2018-12-14T00:55:47.386Z,15.07
2018-12-14T00:57:51.507Z,16.97
2018-12-14T00:59:55.573Z,17.40
2018-12-14T01:01:59.636Z,18.43
2018-12-14T01:04:03.839Z,16.57
2018-12-14T01:06:07.896Z,16.03
2018-12-14T01:08:11.998Z,13.77
2018-12-14T01:10:16.093Z,12.77
2018-12-14T01:12:20.304Z,13.67
2018-12-14T01:14:24.426Z,13.07
2018-12-14T01:16:28.502Z,13.67
2018-12-14T01:18:32.582Z,13.87
2018-12-14T01:20:36.612Z,14.27
2018-12-14T01:22:40.685Z,12.50
2018-12-14T01:24:45.073Z,13.83
2018-12-14T01:26:49.343Z,12.57
2018-12-14T01:28:53.376Z,12.60
2018-12-14T01:30:57.594Z,13.10
2018-12-14T01:33:01.616Z,12.13
2018-12-14T01:35:06.160Z,13.97
2018-12-14T01:37:10.388Z,12.40
2018-12-14T01:39:15.205Z,11.63
2018-12-14T01:41:19.332Z,15.50
2018-12-14T01:43:23.446Z,12.80
2018-12-14T01:45:28.146Z,13.63
2018-12-14T01:47:32.414Z,12.57
2018-12-14T01:49:37.463Z,12.07
2018-12-14T01:51:41.709Z,13.03
2018-12-14T01:53:45.951Z,14.03
2018-12-14T01:55:50.222Z,12.47
2018-12-14T01:57:54.580Z,14.33
2018-12-14T01:59:58.690Z,11.37
2018-12-14T02:02:03.506Z,11.87
2018-12-14T02:04:08.602Z,10.53
2018-12-14T02:06:14.198Z,10.57
2018-12-14T02:08:19.730Z,10.93
2018-12-14T02:10:23.809Z,11.57
2018-12-14T02:12:28.120Z,12.30
2018-12-14T02:14:32.138Z,11.50
2018-12-14T02:16:36.230Z,10.50
2018-12-14T02:18:40.309Z,12.00
2018-12-14T02:20:44.342Z,11.47
2018-12-14T02:22:48.460Z,11.33
2018-12-14T02:24:52.488Z,10.57
2018-12-14T02:26:56.509Z,10.43
2018-12-14T02:29:00.509Z,11.40
2018-12-14T02:31:04.612Z,12.63
2018-12-14T02:33:08.751Z,13.07
2018-12-14T02:35:12.803Z,12.70
2018-12-14T02:37:16.896Z,10.13
2018-12-14T02:39:20.906Z,13.97
2018-12-14T02:41:24.928Z,13.20
2018-12-14T02:43:29.049Z,12.57
2018-12-14T02:45:33.194Z,13.63
2018-12-14T02:47:37.682Z,12.67
2018-12-14T02:49:41.793Z,13.40
2018-12-14T02:51:45.823Z,13.00
2018-12-14T02:53:49.815Z,14.00
2018-12-14T02:55:53.918Z,12.87
2018-12-14T02:57:57.932Z,12.83
2018-12-14T03:00:01.970Z,11.73
2018-12-14T03:02:07.163Z,14.50
2018-12-14T03:04:12.130Z,13.73
2018-12-14T03:06:16.551Z,14.43
2018-12-14T03:08:20.642Z,13.93
2018-12-14T03:10:24.841Z,14.53
2018-12-14T03:12:28.958Z,15.57
2018-12-14T03:14:33.138Z,14.07
2018-12-14T03:16:37.167Z,17.30
2018-12-14T03:18:41.358Z,17.47
2018-12-14T03:20:45.450Z,16.30
2018-12-14T03:22:49.576Z,16.43
2018-12-14T03:24:54.041Z,13.73
2018-12-14T03:26:58.087Z,13.47
2018-12-14T03:29:02.122Z,14.83
2018-12-14T03:31:06.286Z,14.37
2018-12-14T03:35:23.539Z,15.80
2018-12-14T03:37:27.541Z,16.97
2018-12-14T03:39:31.559Z,15.50
2018-12-14T03:41:35.980Z,17.57
2018-12-14T03:43:40.006Z,15.43
2018-12-14T03:45:44.018Z,14.27
2018-12-14T03:47:48.046Z,17.07
2018-12-14T03:49:52.125Z,15.20
2018-12-14T03:51:56.152Z,17.30
2018-12-14T03:54:00.229Z,14.17
2018-12-14T03:56:04.357Z,13.20
2018-12-14T03:58:08.558Z,12.87
2018-12-14T04:00:12.922Z,13.53
2018-12-14T04:02:17.764Z,12.37
2018-12-14T04:04:21.780Z,13.20
2018-12-14T04:06:25.903Z,15.33
2018-12-14T04:08:29.994Z,12.70
2018-12-14T04:10:34.005Z,14.83
2018-12-14T04:12:41.619Z,13.30
2018-12-14T04:14:44.036Z,13.27
2018-12-14T04:16:48.050Z,13.37
2018-12-14T04:18:52.164Z,10.33
2018-12-14T04:20:56.337Z,12.60
2018-12-14T04:23:00.370Z,10.37
2018-12-14T04:25:05.161Z,10.97
2018-12-14T04:27:09.210Z,11.13
2018-12-14T04:29:13.251Z,11.57
2018-12-14T04:31:17.379Z,13.67
2018-12-14T04:33:21.706Z,11.80
2018-12-14T04:35:25.711Z,10.20
2018-12-14T04:37:29.911Z,11.87
2018-12-14T04:39:33.997Z,11.60
2018-12-14T04:41:38.114Z,13.17
2018-12-14T04:43:42.123Z,10.43
2018-12-14T04:45:46.740Z,11.17
2018-12-14T04:47:50.750Z,11.17
2018-12-14T04:49:54.766Z,13.27
2018-12-14T04:51:58.912Z,11.30
2018-12-14T04:54:02.932Z,10.60
2018-12-14T04:56:07.053Z,10.57
2018-12-14T04:58:11.154Z,9.90
2018-12-14T05:00:15.466Z,11.00
2018-12-14T05:02:19.635Z,11.53
2018-12-14T05:04:23.641Z,11.40
2018-12-14T05:06:27.690Z,11.50
2018-12-14T05:08:31.803Z,9.60
2018-12-14T05:10:35.817Z,10.67
2018-12-14T05:12:39.876Z,12.70
2018-12-14T05:14:44.281Z,9.47
2018-12-14T05:16:48.411Z,10.77
2018-12-14T05:18:52.492Z,10.80
2018-12-14T05:20:56.860Z,11.10
2018-12-14T05:23:00.893Z,11.60
2018-12-14T05:25:05.545Z,11.67
2018-12-14T05:27:09.876Z,10.67
2018-12-14T05:29:13.984Z,14.23
2018-12-14T05:31:18.213Z,11.37
2018-12-14T05:33:22.249Z,10.43
2018-12-14T05:35:26.537Z,10.13
2018-12-14T05:37:30.582Z,10.90
2018-12-14T05:39:34.679Z,11.00
2018-12-14T05:41:38.717Z,11.73
2018-12-14T05:43:42.806Z,11.13
2018-12-14T05:45:46.847Z,9.97
2018-12-14T05:47:50.862Z,13.10
2018-12-14T05:49:54.858Z,11.30
2018-12-14T05:51:58.877Z,12.17
2018-12-14T05:54:02.949Z,10.90
2018-12-14T05:56:07.063Z,11.20
2018-12-14T05:58:11.089Z,11.43
2018-12-14T06:00:15.283Z,12.20
2018-12-14T06:02:19.296Z,12.70
2018-12-14T06:04:23.345Z,10.23
2018-12-14T06:06:27.525Z,13.47
2018-12-14T06:08:31.637Z,16.27
2018-12-14T06:10:35.656Z,19.20
2018-12-14T06:12:39.701Z,16.73
2018-12-14T06:14:43.745Z,18.13
2018-12-14T06:16:47.754Z,25.73
2018-12-14T06:18:51.749Z,21.53
2018-12-14T06:20:56.700Z,17.03
2018-12-14T06:23:00.889Z,15.00
2018-12-14T06:25:05.367Z,18.83
2018-12-14T06:27:09.679Z,15.73
2018-12-14T06:29:13.720Z,17.27
2018-12-14T06:31:17.775Z,18.33
2018-12-14T06:33:21.893Z,18.33
2018-12-14T06:35:25.997Z,18.57
2018-12-14T06:37:30.344Z,18.60
2018-12-14T06:39:34.349Z,20.03
2018-12-14T06:41:39.150Z,19.33
2018-12-14T06:43:43.212Z,20.70
2018-12-14T06:45:47.718Z,18.77
2018-12-14T06:47:51.866Z,19.60
2018-12-14T06:49:55.893Z,19.20
2018-12-14T06:52:00.087Z,18.40
2018-12-14T06:54:04.275Z,17.80
2018-12-14T06:56:08.367Z,19.47
2018-12-14T06:58:12.424Z,20.30
2018-12-14T07:00:16.532Z,18.30
2018-12-14T07:02:20.552Z,21.00
2018-12-14T07:04:24.592Z,21.37
2018-12-14T07:06:28.614Z,19.90
2018-12-14T07:08:32.645Z,19.93
2018-12-14T07:10:36.765Z,20.40
2018-12-14T07:12:40.917Z,19.87
2018-12-14T07:14:45.064Z,19.77
2018-12-14T07:16:49.102Z,23.67
2018-12-14T07:18:53.229Z,19.67
2018-12-14T07:20:57.430Z,19.63
2018-12-14T07:23:01.490Z,20.73
2018-12-14T07:25:06.065Z,19.87
2018-12-14T07:27:10.279Z,17.23
2018-12-14T07:29:14.575Z,20.53
2018-12-14T07:31:18.634Z,18.70
2018-12-14T07:33:22.665Z,19.43
2018-12-14T07:35:26.666Z,20.57
2018-12-14T07:37:30.687Z,18.23
2018-12-14T07:39:34.723Z,19.37
2018-12-14T07:41:38.752Z,18.43
2018-12-14T07:43:42.732Z,18.47
2018-12-14T07:45:46.894Z,17.73
2018-12-14T07:47:50.940Z,19.57
2018-12-14T07:49:54.937Z,20.30
2018-12-14T07:51:59.455Z,23.13
2018-12-14T07:54:03.513Z,22.67
2018-12-14T07:56:07.616Z,20.93
2018-12-14T07:58:11.657Z,25.30
2018-12-14T08:00:15.700Z,20.67
2018-12-14T08:02:19.724Z,21.70
2018-12-14T08:04:23.913Z,21.10
2018-12-14T08:06:28.044Z,20.20
2018-12-14T08:08:33.159Z,21.87
2018-12-14T08:10:37.165Z,22.07
2018-12-14T08:12:41.252Z,23.33
2018-12-14T08:14:45.260Z,21.33
2018-12-14T08:16:49.365Z,23.97
2018-12-14T08:18:53.693Z,22.23
2018-12-14T08:20:57.735Z,21.80
2018-12-14T08:23:01.742Z,23.93
2018-12-14T08:25:06.469Z,21.07
2018-12-14T08:27:10.473Z,23.83
2018-12-14T08:29:14.582Z,22.60
2018-12-14T08:31:18.611Z,25.77
2018-12-14T08:33:22.682Z,23.67
2018-12-14T08:35:26.871Z,25.07
2018-12-14T08:37:30.965Z,23.73
2018-12-14T08:39:35.086Z,23.03
2018-12-14T08:41:39.199Z,26.30
2018-12-14T08:43:43.277Z,21.70
2018-12-14T08:45:47.356Z,27.47
2018-12-14T08:47:52.007Z,35.43
2018-12-14T08:49:56.035Z,33.77
2018-12-14T08:52:00.017Z,30.17
2018-12-14T08:54:04.142Z,35.20
2018-12-14T08:56:08.161Z,33.50
2018-12-14T08:58:12.318Z,33.03
2018-12-14T09:00:16.548Z,31.60
2018-12-14T09:02:20.737Z,32.43
2018-12-14T09:04:24.793Z,27.90
2018-12-14T09:06:28.832Z,33.53
2018-12-14T09:08:32.957Z,33.30
2018-12-14T09:10:36.999Z,34.30
2018-12-14T09:12:41.051Z,33.53
2018-12-14T09:14:45.389Z,30.33
2018-12-14T09:16:49.410Z,32.47
2018-12-14T09:18:53.506Z,33.23
2018-12-14T09:21:01.011Z,42.37
2018-12-14T09:23:04.196Z,36.53
2018-12-14T09:25:08.558Z,28.30
2018-12-14T09:27:12.685Z,22.47
2018-12-14T09:29:17.272Z,26.77
2018-12-14T09:31:21.366Z,33.30
2018-12-14T09:33:25.607Z,49.10
2018-12-14T09:35:29.660Z,57.67
2018-12-14T09:37:33.843Z,48.83
2018-12-14T09:39:37.862Z,51.43
2018-12-14T09:41:41.946Z,51.60
2018-12-14T09:43:54.161Z,49.97
2018-12-14T09:45:54.826Z,43.73
2018-12-14T09:47:58.841Z,33.63
2018-12-14T09:50:03.055Z,46.53
2018-12-14T09:52:07.282Z,36.63
2018-12-14T09:54:11.308Z,33.83
2018-12-14T09:56:15.424Z,25.33
2018-12-14T09:58:19.464Z,21.10
2018-12-14T10:00:23.585Z,20.37
2018-12-14T10:02:27.713Z,17.27
2018-12-14T10:04:31.731Z,14.00
2018-12-14T10:06:35.744Z,16.23
2018-12-14T10:08:39.810Z,13.37
2018-12-14T10:10:43.996Z,10.37
2018-12-14T10:12:48.031Z,9.33
2018-12-14T10:14:52.099Z,8.70
2018-12-14T10:16:56.112Z,9.10
2018-12-14T10:21:15.043Z,9.60
2018-12-14T10:23:19.033Z,8.23
2018-12-14T10:25:23.157Z,7.83
2018-12-14T10:27:27.418Z,9.63
2018-12-14T10:29:31.497Z,10.27
2018-12-14T10:31:35.493Z,7.37
2018-12-14T10:33:39.578Z,9.13
2018-12-14T10:35:43.702Z,7.73
2018-12-14T10:37:47.909Z,8.63
2018-12-14T10:39:51.969Z,8.73
2018-12-14T10:41:56.345Z,10.77
2018-12-14T10:44:00.426Z,8.90
2018-12-14T10:46:04.545Z,9.27
2018-12-14T10:48:08.596Z,9.67
2018-12-14T10:50:12.844Z,8.07
2018-12-14T10:52:16.920Z,9.87
2018-12-14T10:54:21.146Z,10.23
2018-12-14T10:56:25.193Z,9.17
2018-12-14T10:58:29.287Z,8.37
2018-12-14T11:00:38.829Z,11.10
2018-12-14T11:02:42.842Z,9.03
2018-12-14T11:04:46.966Z,8.20
2018-12-14T11:06:51.177Z,8.63
2018-12-14T11:08:55.301Z,8.27
2018-12-14T11:10:59.499Z,9.43
2018-12-14T11:13:03.513Z,9.57
2018-12-14T11:15:07.734Z,9.97
2018-12-14T11:17:11.771Z,9.77
2018-12-14T11:19:15.773Z,11.23
2018-12-14T11:21:19.844Z,11.93
2018-12-14T11:23:23.980Z,11.20
2018-12-14T11:25:28.034Z,11.93
2018-12-14T11:27:32.053Z,15.17
2018-12-14T11:29:36.089Z,11.30
2018-12-14T11:31:40.113Z,11.57
2018-12-14T11:33:44.192Z,12.33
2018-12-14T11:35:48.276Z,9.97
2018-12-14T11:37:52.408Z,8.50
2018-12-14T11:39:56.424Z,9.87
2018-12-14T11:42:00.549Z,10.93
2018-12-14T11:44:04.730Z,9.33
2018-12-14T11:46:09.176Z,11.10
2018-12-14T11:48:13.310Z,10.23
2018-12-14T11:50:17.356Z,9.83
2018-12-14T11:52:21.416Z,10.77
2018-12-14T11:54:25.441Z,10.90
2018-12-14T11:56:29.473Z,9.70
2018-12-14T11:58:33.537Z,8.97
2018-12-14T12:00:37.602Z,8.33
2018-12-14T12:02:43.272Z,10.40
2018-12-14T12:04:47.699Z,8.67
2018-12-14T12:06:51.736Z,8.17
2018-12-14T12:08:55.986Z,9.60
2018-12-14T12:11:00.029Z,9.03
2018-12-14T12:13:04.111Z,8.57
2018-12-14T12:15:09.674Z,8.80
2018-12-14T12:17:13.883Z,6.73
2018-12-14T12:19:17.933Z,7.93
2018-12-14T12:21:22.020Z,7.97
2018-12-14T12:23:26.085Z,8.23
2018-12-14T12:25:30.086Z,8.73
2018-12-14T12:27:34.160Z,6.93
2018-12-14T12:29:38.221Z,8.73
2018-12-14T12:31:42.287Z,7.33
2018-12-14T12:33:46.385Z,7.63
2018-12-14T12:35:50.509Z,8.13
2018-12-14T12:37:55.022Z,9.67
2018-12-14T12:39:59.117Z,9.13
2018-12-14T12:42:03.216Z,11.30
2018-12-14T12:44:07.370Z,9.30
2018-12-14T12:46:11.398Z,8.80
2018-12-14T12:48:15.505Z,9.00
2018-12-14T12:50:19.643Z,9.77
2018-12-14T12:52:24.013Z,8.43
2018-12-14T12:54:28.146Z,10.50
2018-12-14T12:56:32.264Z,10.90
2018-12-14T12:58:36.290Z,8.83
2018-12-14T13:00:40.276Z,9.03
2018-12-14T13:02:44.374Z,7.30
2018-12-14T13:04:48.709Z,8.87
2018-12-14T13:06:52.961Z,7.60
2018-12-14T13:08:57.093Z,7.43
2018-12-14T13:11:01.192Z,7.40
2018-12-14T13:13:06.119Z,9.57
2018-12-14T13:15:10.318Z,8.53
2018-12-14T13:17:14.355Z,13.13
2018-12-14T13:19:18.522Z,12.87
2018-12-14T13:21:22.516Z,11.03
2018-12-14T13:23:26.569Z,9.90
2018-12-14T13:25:30.600Z,12.10
2018-12-14T13:27:34.649Z,10.50
2018-12-14T13:29:38.714Z,10.87
2018-12-14T13:31:43.551Z,9.97
2018-12-14T13:33:47.630Z,11.13
2018-12-14T13:35:51.633Z,9.27
2018-12-14T13:37:55.753Z,7.87
2018-12-14T13:39:59.844Z,7.57
2018-12-14T13:42:04.069Z,7.00
2018-12-14T13:44:08.298Z,8.73
2018-12-14T13:46:12.458Z,8.97
2018-12-14T13:48:16.566Z,9.70
2018-12-14T13:50:20.665Z,7.67
2018-12-14T13:52:24.797Z,8.10
2018-12-14T13:54:28.849Z,8.57
2018-12-14T13:56:34.308Z,8.40
2018-12-14T13:58:38.635Z,10.10
2018-12-14T14:00:42.639Z,7.73
2018-12-14T14:02:46.769Z,9.70
2018-12-14T14:04:50.765Z,9.23
2018-12-14T14:06:54.973Z,9.30
2018-12-14T14:08:59.053Z,8.13
2018-12-14T14:11:04.146Z,10.87
2018-12-14T14:13:08.238Z,9.27
2018-12-14T14:15:12.444Z,12.60
2018-12-14T14:17:16.456Z,12.90
2018-12-14T14:19:20.716Z,11.83
2018-12-14T14:21:24.859Z,7.67
2018-12-14T14:23:29.832Z,8.97
2018-12-14T14:25:34.377Z,9.43
2018-12-14T14:27:38.422Z,9.73
2018-12-14T14:29:42.489Z,14.13
2018-12-14T14:31:46.560Z,9.67
2018-12-14T14:33:50.689Z,7.97
2018-12-14T14:35:54.771Z,8.57
2018-12-14T14:37:58.820Z,9.47
2018-12-14T14:40:02.829Z,9.80
2018-12-14T14:42:07.569Z,7.53
2018-12-14T14:44:11.609Z,8.47
2018-12-14T14:46:16.230Z,8.13
2018-12-14T14:48:20.397Z,9.13
2018-12-14T14:50:24.405Z,8.83
2018-12-14T14:52:28.557Z,11.40
2018-12-14T14:54:32.677Z,10.20
2018-12-14T14:56:36.737Z,10.30
2018-12-14T14:58:40.798Z,10.80
2018-12-14T15:00:45.097Z,9.70
2018-12-14T15:02:49.224Z,9.80
2018-12-14T15:04:53.245Z,10.40
2018-12-14T15:06:57.281Z,9.40
2018-12-14T15:09:01.794Z,11.20
2018-12-14T15:11:05.826Z,11.00
2018-12-14T15:13:09.989Z,10.13
2018-12-14T15:15:14.007Z,8.53
2018-12-14T15:17:18.224Z,11.20
2018-12-14T15:19:22.221Z,9.53
2018-12-14T15:21:26.323Z,8.33
2018-12-14T15:23:30.355Z,10.67
2018-12-14T15:25:34.449Z,11.70
2018-12-14T15:27:38.666Z,14.83
2018-12-14T15:29:42.710Z,13.20
2018-12-14T15:31:47.263Z,10.27
2018-12-14T15:33:51.387Z,9.77
2018-12-14T15:35:55.425Z,8.93
2018-12-14T15:37:59.464Z,11.20
2018-12-14T15:40:03.753Z,8.77
2018-12-14T15:42:07.926Z,9.17
2018-12-14T15:44:12.162Z,10.43
2018-12-14T15:46:16.203Z,9.87
2018-12-14T15:48:20.265Z,8.60
2018-12-14T15:50:24.264Z,9.37
2018-12-14T15:52:28.318Z,10.40
2018-12-14T15:54:32.304Z,8.93
2018-12-14T15:56:36.376Z,8.07
2018-12-14T15:58:40.679Z,9.40
2018-12-14T16:00:44.687Z,9.73
2018-12-14T16:02:48.841Z,8.37
2018-12-14T16:04:53.001Z,7.60
2018-12-14T16:06:57.236Z,8.43
2018-12-14T16:09:01.308Z,8.07
2018-12-14T16:11:05.383Z,8.23
2018-12-14T16:13:09.510Z,7.80
2018-12-14T16:15:19.666Z,9.33
2018-12-14T16:17:20.049Z,7.37
2018-12-14T16:19:24.221Z,9.53
2018-12-14T16:21:28.386Z,9.23
2018-12-14T16:23:32.530Z,9.67
2018-12-14T16:25:36.766Z,8.33
2018-12-14T16:27:41.253Z,7.87
2018-12-14T16:29:45.439Z,7.37
2018-12-14T16:31:49.488Z,9.00
2018-12-14T16:33:53.695Z,7.50
2018-12-14T16:35:59.548Z,7.53
2018-12-14T16:38:03.602Z,9.33
2018-12-14T16:40:08.332Z,9.77
2018-12-14T16:42:12.541Z,8.97
2018-12-14T16:44:16.619Z,10.30
2018-12-14T16:46:20.687Z,8.27
2018-12-14T16:48:24.716Z,9.03
2018-12-14T16:50:29.067Z,10.93
2018-12-14T16:52:33.119Z,9.00
2018-12-14T16:54:37.588Z,7.00
2018-12-14T16:56:41.747Z,8.83
2018-12-14T16:58:45.774Z,10.50
2018-12-14T17:00:49.889Z,8.70
2018-12-14T17:02:54.009Z,8.83
2018-12-14T17:04:58.072Z,10.33
2018-12-14T17:07:02.156Z,10.93
2018-12-14T17:09:07.501Z,9.33
2018-12-14T17:11:11.629Z,10.57
2018-12-14T17:13:15.807Z,10.83
2018-12-14T17:15:20.161Z,9.30
2018-12-14T17:17:24.220Z,12.63
2018-12-14T17:19:28.276Z,11.30
2018-12-14T17:21:32.356Z,10.57
2018-12-14T17:23:36.465Z,12.53
2018-12-14T17:25:40.583Z,8.07
2018-12-14T17:27:44.849Z,9.77
2018-12-14T17:29:48.910Z,9.33
2018-12-14T17:31:53.195Z,8.63
2018-12-14T17:33:57.262Z,6.13
2018-12-14T17:36:01.401Z,8.33
2018-12-14T17:38:05.649Z,9.20
2018-12-14T17:40:09.898Z,10.73
2018-12-14T17:42:13.926Z,7.13
2018-12-14T17:44:17.993Z,7.73
2018-12-14T17:46:22.053Z,8.27
2018-12-14T17:48:26.077Z,9.10
2018-12-14T17:50:30.495Z,9.30
2018-12-14T17:52:34.527Z,20.07
2018-12-14T17:54:38.642Z,8.57
2018-12-14T17:56:42.690Z,7.37
2018-12-14T17:58:46.761Z,7.80
2018-12-14T18:00:50.804Z,7.33
2018-12-14T18:02:54.892Z,6.83
2018-12-14T18:04:58.909Z,8.37
2018-12-14T18:07:03.111Z,7.43
2018-12-14T18:09:07.248Z,10.83
2018-12-14T18:11:11.364Z,8.73
2018-12-14T18:13:15.464Z,7.83
2018-12-14T18:15:19.557Z,7.40
2018-12-14T18:17:23.594Z,8.37
2018-12-14T18:19:27.727Z,8.23
2018-12-14T18:21:32.034Z,10.37
2018-12-14T18:23:36.038Z,8.73
2018-12-14T18:25:40.073Z,12.33
2018-12-14T18:27:44.128Z,8.17
2018-12-14T18:29:48.314Z,8.03
2018-12-14T18:31:52.530Z,9.63
2018-12-14T18:33:56.627Z,8.30
2018-12-14T18:36:00.698Z,8.03
2018-12-14T18:38:04.757Z,9.20
2018-12-14T18:40:09.855Z,8.37
2018-12-14T18:42:13.959Z,9.57
2018-12-14T18:44:18.165Z,9.20
2018-12-14T18:46:22.315Z,6.77
2018-12-14T18:48:26.401Z,9.30
2018-12-14T18:50:30.473Z,8.17
2018-12-14T18:52:34.490Z,8.00
2018-12-14T18:54:38.614Z,7.37
2018-12-14T18:56:42.744Z,6.53
2018-12-14T18:58:47.011Z,7.60
2018-12-14T19:00:51.157Z,7.40
2018-12-14T19:02:55.333Z,7.63
2018-12-14T19:04:59.492Z,7.33
2018-12-14T19:07:03.530Z,8.40
2018-12-14T19:09:07.718Z,6.97
2018-12-14T19:11:11.829Z,8.67
2018-12-14T19:13:16.068Z,10.10
2018-12-14T19:15:20.497Z,7.73
2018-12-14T19:17:24.602Z,7.73
2018-12-14T19:19:28.755Z,9.87
2018-12-14T19:21:33.220Z,8.13
2018-12-14T19:23:37.275Z,9.80
2018-12-14T19:25:41.317Z,8.53
2018-12-14T19:27:52.144Z,9.57
2018-12-14T19:29:56.404Z,10.43
2018-12-14T19:32:00.520Z,8.33
2018-12-14T19:34:04.730Z,8.03
2018-12-14T19:36:08.861Z,10.80
2018-12-14T19:38:12.925Z,7.73
2018-12-14T19:40:17.090Z,8.77
2018-12-14T19:42:21.116Z,7.87
2018-12-14T19:44:25.349Z,9.13
2018-12-14T19:46:29.382Z,9.07
2018-12-14T19:48:33.553Z,13.90
2018-12-14T19:50:37.744Z,13.07
2018-12-14T19:52:41.888Z,9.60
2018-12-14T19:54:46.219Z,8.23
2018-12-14T19:56:50.684Z,8.03
2018-12-14T19:58:54.831Z,7.97
2018-12-14T20:00:58.971Z,8.20
2018-12-14T20:03:03.083Z,8.53
2018-12-14T20:05:07.934Z,8.03
2018-12-14T20:07:12.054Z,8.93
2018-12-14T20:09:16.125Z,6.90
2018-12-14T20:11:20.389Z,10.10
2018-12-14T20:13:24.414Z,10.07
2018-12-14T20:15:29.223Z,8.07
2018-12-14T20:17:34.048Z,8.87
2018-12-14T20:19:38.282Z,8.10
2018-12-14T20:21:42.349Z,7.03
2018-12-14T20:23:46.356Z,8.00
2018-12-14T20:25:50.586Z,8.70
2018-12-14T20:27:54.616Z,6.70
2018-12-14T20:29:58.722Z,15.63
2018-12-14T20:32:03.076Z,6.83
2018-12-14T20:34:07.059Z,6.93
2018-12-14T20:36:11.718Z,8.83
2018-12-14T20:38:15.876Z,7.43
2018-12-14T20:40:19.925Z,7.53
2018-12-14T20:42:24.084Z,7.70
2018-12-14T20:44:28.256Z,8.37
2018-12-14T20:46:32.989Z,9.77
2018-12-14T20:48:37.090Z,8.17
2018-12-14T20:50:41.158Z,7.83
2018-12-14T20:52:51.877Z,7.93
2018-12-14T20:54:55.975Z,9.63
2018-12-14T20:57:00.620Z,7.60
2018-12-14T20:59:04.672Z,9.47
2018-12-14T21:01:08.888Z,8.75
2018-12-14T21:03:12.933Z,9.03
2018-12-14T21:05:17.025Z,9.77
2018-12-14T21:07:21.164Z,7.03
2018-12-14T21:09:25.225Z,7.50
2018-12-14T21:11:29.360Z,8.20
2018-12-14T21:13:33.456Z,7.57
2018-12-14T21:15:37.610Z,7.37
2018-12-14T21:17:41.662Z,8.30
2018-12-14T21:19:45.694Z,9.07
2018-12-14T21:21:49.961Z,8.20
2018-12-14T21:23:54.078Z,6.30
2018-12-14T21:25:58.278Z,8.23
2018-12-14T21:28:02.353Z,7.53
2018-12-14T21:30:08.573Z,8.60
2018-12-14T21:32:12.820Z,7.87
2018-12-14T21:34:17.053Z,7.83
2018-12-14T21:36:21.156Z,7.70
2018-12-14T21:38:25.210Z,9.63
2018-12-14T21:40:29.311Z,7.80
2018-12-14T21:42:34.312Z,6.57
2018-12-14T21:44:38.573Z,7.87
2018-12-14T21:46:42.640Z,7.23
2018-12-14T21:48:46.797Z,6.43
2018-12-14T21:50:50.833Z,6.70
2018-12-14T21:52:54.949Z,8.97
2018-12-14T21:54:59.089Z,9.13
2018-12-14T21:57:03.272Z,7.40
2018-12-14T21:59:07.281Z,7.20
2018-12-14T22:01:11.361Z,7.47
2018-12-14T22:03:15.416Z,6.17
2018-12-14T22:05:19.490Z,7.97
2018-12-14T22:07:23.664Z,7.07
2018-12-14T22:09:28.362Z,8.40
2018-12-14T22:11:32.360Z,6.43
2018-12-14T22:13:36.561Z,6.70
2018-12-14T22:15:40.602Z,6.93
2018-12-14T22:17:44.661Z,6.77
2018-12-14T22:19:48.712Z,8.30
2018-12-14T22:21:52.748Z,6.87
2018-12-14T22:23:56.863Z,6.93
2018-12-14T22:26:00.881Z,7.40
2018-12-14T22:28:04.894Z,7.03
2018-12-14T22:30:09.184Z,7.83
2018-12-14T22:32:13.193Z,7.23
2018-12-14T22:34:17.272Z,7.53
2018-12-14T22:36:21.476Z,6.67
2018-12-14T22:38:25.513Z,7.77
2018-12-14T22:40:29.532Z,6.80
2018-12-14T22:42:33.622Z,6.47
2018-12-14T22:44:37.921Z,7.80
2018-12-14T22:46:45.612Z,8.23
2018-12-14T22:48:48.027Z,8.93
2018-12-14T22:50:52.061Z,7.10
2018-12-14T22:52:56.084Z,7.27
2018-12-14T22:55:00.101Z,7.03
2018-12-14T22:57:04.367Z,6.67
2018-12-14T22:59:08.461Z,7.37
2018-12-14T23:01:12.712Z,7.20
2018-12-14T23:03:16.727Z,7.73
2018-12-14T23:05:20.736Z,7.83
2018-12-14T23:07:26.666Z,6.83
2018-12-14T23:09:30.702Z,9.03
2018-12-14T23:11:35.441Z,11.40
2018-12-14T23:13:39.493Z,7.87
2018-12-14T23:15:43.519Z,9.00
2018-12-14T23:17:47.758Z,9.60
2018-12-14T23:19:51.785Z,8.20
2018-12-14T23:21:55.799Z,9.17
2018-12-14T23:24:00.766Z,8.00
2018-12-14T23:26:04.818Z,7.03
2018-12-14T23:28:08.913Z,9.40
2018-12-14T23:30:13.032Z,8.50
2018-12-14T23:32:17.042Z,7.97
2018-12-14T23:34:21.073Z,7.93
2018-12-14T23:36:25.093Z,8.50
2018-12-14T23:38:29.138Z,8.47
2018-12-14T23:40:33.156Z,7.97
2018-12-14T23:42:37.225Z,8.10
2018-12-14T23:44:41.878Z,8.03
2018-12-14T23:46:46.046Z,7.63
2018-12-14T23:48:50.179Z,7.27
2018-12-14T23:50:54.273Z,8.50
2018-12-14T23:52:58.402Z,7.70
2018-12-14T23:55:02.440Z,9.53
2018-12-14T23:57:12.236Z,7.63
2018-12-14T23:59:14.698Z,8.20
